Angelica, Wisconsin
Current Conditions -  °F | °C
As of 9:53 AM on Friday 28 Nov 2014 (Local Time) from KGRB Reporting Station
Light Snow Light Snow  
Wind Chill:   Ceiling: 4500
Heat Index: 16°   Visibility: 2.5mi
Dew Point: 12°   Wind: 8mph
Humidity: 84%   Direction: 160°SSE
Pressure: 30.18"   Gusts: NA
Location:  44.6594°N, 88.2945°W
Report Text: KGRB 281553Z 16007KT 2 1/2SM -SN BR BKN045 OVC055 M09/M11 A3018 RMK AO2 SLP235 P0001 T10891111
Loading
Personal Weather Stations






























Interactive Weather Map New forecast layout! Learn more

10-Day Weather Forecast

Advertisements
Track Severe Weather on mobile